<?xml version="1.0" encoding="UTF-8" standalone="no" ?>
<gpx xmlns="http://www.topografix.com/GPX/1/1" xmlns:xsi="http://www.w3.org/2001/XMLSchema-instance" xsi:schemaLocation="http://www.topografix.com/GPX/1/1 http://www.topografix.com/GPX/1/1/gpx.xsd" version="1.1" creator="VisuGPX - https://www.visugpx.com">
  <metadata>
    <name>château de boulogne</name>
  </metadata>
  <trk>
    <name><![CDATA[15642865-château de boulogne]]></name>
    <trkseg>
      <trkpt lat="44.69068" lon="4.43972">
        <ele>411</ele>
        <time>2022-10-04T09:59:38Z</time>
      </trkpt>
      <trkpt lat="44.69078" lon="4.43992">
        <ele>411</ele>
        <time>2022-10-04T10:00:01Z</time>
      </trkpt>
      <trkpt lat="44.69104" lon="4.44017">
        <ele>412</ele>
        <time>2022-10-04T10:00:43Z</time>
      </trkpt>
      <trkpt lat="44.69094" lon="4.44022">
        <ele>409</ele>
        <time>2022-10-04T10:00:57Z</time>
      </trkpt>
      <trkpt lat="44.69054" lon="4.44">
        <ele>407</ele>
        <time>2022-10-04T10:01:55Z</time>
      </trkpt>
      <trkpt lat="44.69049" lon="4.44008">
        <ele>405</ele>
        <time>2022-10-04T10:02:05Z</time>
      </trkpt>
      <trkpt lat="44.69078" lon="4.44032">
        <ele>404</ele>
        <time>2022-10-04T10:02:50Z</time>
      </trkpt>
      <trkpt lat="44.69113" lon="4.44076">
        <ele>402</ele>
        <time>2022-10-04T10:03:52Z</time>
      </trkpt>
      <trkpt lat="44.69151" lon="4.44143">
        <ele>406</ele>
        <time>2022-10-04T10:05:14Z</time>
      </trkpt>
      <trkpt lat="44.69148" lon="4.44151">
        <ele>405</ele>
        <time>2022-10-04T10:05:22Z</time>
      </trkpt>
      <trkpt lat="44.69109" lon="4.44155">
        <ele>404</ele>
        <time>2022-10-04T10:06:14Z</time>
      </trkpt>
      <trkpt lat="44.69102" lon="4.44153">
        <ele>403</ele>
        <time>2022-10-04T10:06:24Z</time>
      </trkpt>
      <trkpt lat="44.69054" lon="4.44173">
        <ele>405</ele>
        <time>2022-10-04T10:07:31Z</time>
      </trkpt>
      <trkpt lat="44.69039" lon="4.4417">
        <ele>403</ele>
        <time>2022-10-04T10:07:51Z</time>
      </trkpt>
      <trkpt lat="44.69022" lon="4.44176">
        <ele>404</ele>
        <time>2022-10-04T10:08:14Z</time>
      </trkpt>
      <trkpt lat="44.68991" lon="4.44212">
        <ele>410</ele>
        <time>2022-10-04T10:09:08Z</time>
      </trkpt>
      <trkpt lat="44.68955" lon="4.44284">
        <ele>410</ele>
        <time>2022-10-04T10:10:32Z</time>
      </trkpt>
      <trkpt lat="44.68941" lon="4.44281">
        <ele>406</ele>
        <time>2022-10-04T10:10:50Z</time>
      </trkpt>
      <trkpt lat="44.68899" lon="4.44261">
        <ele>402</ele>
        <time>2022-10-04T10:11:50Z</time>
      </trkpt>
      <trkpt lat="44.68919" lon="4.44316">
        <ele>398</ele>
        <time>2022-10-04T10:12:48Z</time>
      </trkpt>
      <trkpt lat="44.68892" lon="4.44286">
        <ele>402</ele>
        <time>2022-10-04T10:13:34Z</time>
      </trkpt>
      <trkpt lat="44.68851" lon="4.4432">
        <ele>405</ele>
        <time>2022-10-04T10:14:38Z</time>
      </trkpt>
      <trkpt lat="44.68833" lon="4.44427">
        <ele>406</ele>
        <time>2022-10-04T10:16:22Z</time>
      </trkpt>
      <trkpt lat="44.68781" lon="4.44491">
        <ele>417</ele>
        <time>2022-10-04T10:17:54Z</time>
      </trkpt>
      <trkpt lat="44.68687" lon="4.44536">
        <ele>433</ele>
        <time>2022-10-04T10:20:07Z</time>
      </trkpt>
      <trkpt lat="44.68701" lon="4.4449">
        <ele>434</ele>
        <time>2022-10-04T10:20:54Z</time>
      </trkpt>
      <trkpt lat="44.68748" lon="4.44442">
        <ele>431</ele>
        <time>2022-10-04T10:22:12Z</time>
      </trkpt>
      <trkpt lat="44.68766" lon="4.44389">
        <ele>431</ele>
        <time>2022-10-04T10:23:07Z</time>
      </trkpt>
      <trkpt lat="44.68736" lon="4.44234">
        <ele>450</ele>
        <time>2022-10-04T10:25:40Z</time>
      </trkpt>
      <trkpt lat="44.68814" lon="4.44068">
        <ele>441</ele>
        <time>2022-10-04T10:28:49Z</time>
      </trkpt>
      <trkpt lat="44.68791" lon="4.43982">
        <ele>450</ele>
        <time>2022-10-04T10:30:16Z</time>
      </trkpt>
      <trkpt lat="44.68801" lon="4.44048">
        <ele>446</ele>
        <time>2022-10-04T10:31:20Z</time>
      </trkpt>
      <trkpt lat="44.6875" lon="4.44117">
        <ele>459</ele>
        <time>2022-10-04T10:32:54Z</time>
      </trkpt>
      <trkpt lat="44.68721" lon="4.44133">
        <ele>465</ele>
        <time>2022-10-04T10:33:36Z</time>
      </trkpt>
      <trkpt lat="44.68684" lon="4.44199">
        <ele>472</ele>
        <time>2022-10-04T10:34:55Z</time>
      </trkpt>
      <trkpt lat="44.68687" lon="4.4424">
        <ele>470</ele>
        <time>2022-10-04T10:35:35Z</time>
      </trkpt>
      <trkpt lat="44.68674" lon="4.44301">
        <ele>471</ele>
        <time>2022-10-04T10:36:35Z</time>
      </trkpt>
      <trkpt lat="44.68658" lon="4.44331">
        <ele>471</ele>
        <time>2022-10-04T10:37:11Z</time>
      </trkpt>
      <trkpt lat="44.68609" lon="4.44292">
        <ele>484</ele>
        <time>2022-10-04T10:38:26Z</time>
      </trkpt>
      <trkpt lat="44.68533" lon="4.44283">
        <ele>494</ele>
        <time>2022-10-04T10:40:08Z</time>
      </trkpt>
      <trkpt lat="44.68441" lon="4.44317">
        <ele>497</ele>
        <time>2022-10-04T10:42:14Z</time>
      </trkpt>
      <trkpt lat="44.68338" lon="4.44236">
        <ele>514</ele>
        <time>2022-10-04T10:44:52Z</time>
      </trkpt>
      <trkpt lat="44.68303" lon="4.44239">
        <ele>513</ele>
        <time>2022-10-04T10:45:39Z</time>
      </trkpt>
      <trkpt lat="44.68254" lon="4.44207">
        <ele>512</ele>
        <time>2022-10-04T10:46:51Z</time>
      </trkpt>
      <trkpt lat="44.68176" lon="4.44216">
        <ele>513</ele>
        <time>2022-10-04T10:48:35Z</time>
      </trkpt>
      <trkpt lat="44.68096" lon="4.44185">
        <ele>514</ele>
        <time>2022-10-04T10:50:26Z</time>
      </trkpt>
      <trkpt lat="44.6809" lon="4.44161">
        <ele>512</ele>
        <time>2022-10-04T10:50:50Z</time>
      </trkpt>
      <trkpt lat="44.68092" lon="4.4414">
        <ele>512</ele>
        <time>2022-10-04T10:51:10Z</time>
      </trkpt>
      <trkpt lat="44.68118" lon="4.44102">
        <ele>512</ele>
        <time>2022-10-04T10:52:00Z</time>
      </trkpt>
      <trkpt lat="44.68134" lon="4.44086">
        <ele>511</ele>
        <time>2022-10-04T10:52:26Z</time>
      </trkpt>
      <trkpt lat="44.68138" lon="4.44075">
        <ele>511</ele>
        <time>2022-10-04T10:52:38Z</time>
      </trkpt>
      <trkpt lat="44.68114" lon="4.44048">
        <ele>511</ele>
        <time>2022-10-04T10:53:19Z</time>
      </trkpt>
      <trkpt lat="44.68095" lon="4.44028">
        <ele>510</ele>
        <time>2022-10-04T10:53:51Z</time>
      </trkpt>
      <trkpt lat="44.68036" lon="4.44">
        <ele>508</ele>
        <time>2022-10-04T10:55:14Z</time>
      </trkpt>
      <trkpt lat="44.67944" lon="4.43951">
        <ele>500</ele>
        <time>2022-10-04T10:57:25Z</time>
      </trkpt>
      <trkpt lat="44.67904" lon="4.43917">
        <ele>493</ele>
        <time>2022-10-04T10:58:28Z</time>
      </trkpt>
      <trkpt lat="44.67886" lon="4.43926">
        <ele>494</ele>
        <time>2022-10-04T10:58:53Z</time>
      </trkpt>
      <trkpt lat="44.67845" lon="4.43911">
        <ele>489</ele>
        <time>2022-10-04T10:59:50Z</time>
      </trkpt>
      <trkpt lat="44.67825" lon="4.43907">
        <ele>488</ele>
        <time>2022-10-04T11:00:17Z</time>
      </trkpt>
      <trkpt lat="44.67784" lon="4.4392">
        <ele>489</ele>
        <time>2022-10-04T11:01:13Z</time>
      </trkpt>
      <trkpt lat="44.6771" lon="4.43898">
        <ele>485</ele>
        <time>2022-10-04T11:02:54Z</time>
      </trkpt>
      <trkpt lat="44.67654" lon="4.43866">
        <ele>480</ele>
        <time>2022-10-04T11:04:14Z</time>
      </trkpt>
      <trkpt lat="44.67612" lon="4.43846">
        <ele>479</ele>
        <time>2022-10-04T11:05:13Z</time>
      </trkpt>
      <trkpt lat="44.6756" lon="4.43771">
        <ele>473</ele>
        <time>2022-10-04T11:06:53Z</time>
      </trkpt>
      <trkpt lat="44.67518" lon="4.43702">
        <ele>469</ele>
        <time>2022-10-04T11:08:19Z</time>
      </trkpt>
      <trkpt lat="44.67463" lon="4.43656">
        <ele>467</ele>
        <time>2022-10-04T11:09:44Z</time>
      </trkpt>
      <trkpt lat="44.67425" lon="4.43638">
        <ele>467</ele>
        <time>2022-10-04T11:10:38Z</time>
      </trkpt>
      <trkpt lat="44.67395" lon="4.43611">
        <ele>463</ele>
        <time>2022-10-04T11:11:25Z</time>
      </trkpt>
      <trkpt lat="44.67349" lon="4.43598">
        <ele>464</ele>
        <time>2022-10-04T11:12:28Z</time>
      </trkpt>
      <trkpt lat="44.67311" lon="4.43571">
        <ele>461</ele>
        <time>2022-10-04T11:13:25Z</time>
      </trkpt>
      <trkpt lat="44.67278" lon="4.43561">
        <ele>459</ele>
        <time>2022-10-04T11:14:10Z</time>
      </trkpt>
      <trkpt lat="44.67257" lon="4.43569">
        <ele>460</ele>
        <time>2022-10-04T11:14:39Z</time>
      </trkpt>
      <trkpt lat="44.67213" lon="4.43611">
        <ele>459</ele>
        <time>2022-10-04T11:15:50Z</time>
      </trkpt>
      <trkpt lat="44.67161" lon="4.4368">
        <ele>461</ele>
        <time>2022-10-04T11:17:25Z</time>
      </trkpt>
      <trkpt lat="44.67141" lon="4.43774">
        <ele>464</ele>
        <time>2022-10-04T11:18:58Z</time>
      </trkpt>
      <trkpt lat="44.67138" lon="4.43821">
        <ele>463</ele>
        <time>2022-10-04T11:19:43Z</time>
      </trkpt>
      <trkpt lat="44.67155" lon="4.43882">
        <ele>461</ele>
        <time>2022-10-04T11:20:45Z</time>
      </trkpt>
      <trkpt lat="44.67206" lon="4.43939">
        <ele>464</ele>
        <time>2022-10-04T11:22:12Z</time>
      </trkpt>
      <trkpt lat="44.67238" lon="4.43975">
        <ele>464</ele>
        <time>2022-10-04T11:23:07Z</time>
      </trkpt>
      <trkpt lat="44.67261" lon="4.44005">
        <ele>464</ele>
        <time>2022-10-04T11:23:49Z</time>
      </trkpt>
      <trkpt lat="44.67296" lon="4.44014">
        <ele>468</ele>
        <time>2022-10-04T11:24:36Z</time>
      </trkpt>
      <trkpt lat="44.67362" lon="4.44067">
        <ele>473</ele>
        <time>2022-10-04T11:26:18Z</time>
      </trkpt>
      <trkpt lat="44.67372" lon="4.44085">
        <ele>473</ele>
        <time>2022-10-04T11:26:40Z</time>
      </trkpt>
      <trkpt lat="44.67335" lon="4.44091">
        <ele>471</ele>
        <time>2022-10-04T11:27:29Z</time>
      </trkpt>
      <trkpt lat="44.67295" lon="4.44086">
        <ele>469</ele>
        <time>2022-10-04T11:28:23Z</time>
      </trkpt>
      <trkpt lat="44.67286" lon="4.44096">
        <ele>471</ele>
        <time>2022-10-04T11:28:38Z</time>
      </trkpt>
      <trkpt lat="44.67254" lon="4.44096">
        <ele>470</ele>
        <time>2022-10-04T11:29:21Z</time>
      </trkpt>
      <trkpt lat="44.67205" lon="4.44081">
        <ele>468</ele>
        <time>2022-10-04T11:30:28Z</time>
      </trkpt>
      <trkpt lat="44.67149" lon="4.4405">
        <ele>462</ele>
        <time>2022-10-04T11:31:48Z</time>
      </trkpt>
      <trkpt lat="44.67107" lon="4.44033">
        <ele>460</ele>
        <time>2022-10-04T11:32:46Z</time>
      </trkpt>
      <trkpt lat="44.67084" lon="4.44016">
        <ele>458</ele>
        <time>2022-10-04T11:33:21Z</time>
      </trkpt>
      <trkpt lat="44.67032" lon="4.43995">
        <ele>454</ele>
        <time>2022-10-04T11:34:33Z</time>
      </trkpt>
      <trkpt lat="44.66996" lon="4.43993">
        <ele>453</ele>
        <time>2022-10-04T11:35:21Z</time>
      </trkpt>
      <trkpt lat="44.66961" lon="4.44024">
        <ele>449</ele>
        <time>2022-10-04T11:36:17Z</time>
      </trkpt>
      <trkpt lat="44.66928" lon="4.44084">
        <ele>451</ele>
        <time>2022-10-04T11:37:28Z</time>
      </trkpt>
      <trkpt lat="44.66889" lon="4.44126">
        <ele>447</ele>
        <time>2022-10-04T11:38:34Z</time>
      </trkpt>
      <trkpt lat="44.66831" lon="4.44092">
        <ele>440</ele>
        <time>2022-10-04T11:39:58Z</time>
      </trkpt>
      <trkpt lat="44.66604" lon="4.43831">
        <ele>452</ele>
        <time>2022-10-04T11:46:29Z</time>
      </trkpt>
      <trkpt lat="44.66495" lon="4.43708">
        <ele>444</ele>
        <time>2022-10-04T11:49:36Z</time>
      </trkpt>
      <trkpt lat="44.66292" lon="4.43318">
        <ele>442</ele>
        <time>2022-10-04T11:57:14Z</time>
      </trkpt>
      <trkpt lat="44.66243" lon="4.43223">
        <ele>445</ele>
        <time>2022-10-04T11:59:06Z</time>
      </trkpt>
      <trkpt lat="44.6626" lon="4.43086">
        <ele>439</ele>
        <time>2022-10-04T12:01:18Z</time>
      </trkpt>
      <trkpt lat="44.66011" lon="4.42495">
        <ele>434</ele>
        <time>2022-10-04T12:12:10Z</time>
      </trkpt>
      <trkpt lat="44.66065" lon="4.42408">
        <ele>424</ele>
        <time>2022-10-04T12:13:59Z</time>
      </trkpt>
      <trkpt lat="44.66127" lon="4.42481">
        <ele>416</ele>
        <time>2022-10-04T12:15:47Z</time>
      </trkpt>
      <trkpt lat="44.66208" lon="4.42595">
        <ele>407</ele>
        <time>2022-10-04T12:18:20Z</time>
      </trkpt>
      <trkpt lat="44.6626" lon="4.42564">
        <ele>395</ele>
        <time>2022-10-04T12:19:36Z</time>
      </trkpt>
      <trkpt lat="44.66265" lon="4.42493">
        <ele>383</ele>
        <time>2022-10-04T12:20:43Z</time>
      </trkpt>
      <trkpt lat="44.66248" lon="4.42427">
        <ele>373</ele>
        <time>2022-10-04T12:21:50Z</time>
      </trkpt>
      <trkpt lat="44.66201" lon="4.42278">
        <ele>370</ele>
        <time>2022-10-04T12:24:25Z</time>
      </trkpt>
      <trkpt lat="44.66187" lon="4.42127">
        <ele>350</ele>
        <time>2022-10-04T12:26:49Z</time>
      </trkpt>
      <trkpt lat="44.66147" lon="4.42047">
        <ele>344</ele>
        <time>2022-10-04T12:28:22Z</time>
      </trkpt>
      <trkpt lat="44.66031" lon="4.41988">
        <ele>341</ele>
        <time>2022-10-04T12:31:07Z</time>
      </trkpt>
      <trkpt lat="44.65945" lon="4.41901">
        <ele>324</ele>
        <time>2022-10-04T12:33:28Z</time>
      </trkpt>
      <trkpt lat="44.65743" lon="4.41869">
        <ele>310</ele>
        <time>2022-10-04T12:37:59Z</time>
      </trkpt>
      <trkpt lat="44.65733" lon="4.41818">
        <ele>297</ele>
        <time>2022-10-04T12:38:50Z</time>
      </trkpt>
      <trkpt lat="44.65571" lon="4.41736">
        <ele>268</ele>
        <time>2022-10-04T12:42:39Z</time>
      </trkpt>
      <trkpt lat="44.65626" lon="4.4167">
        <ele>256</ele>
        <time>2022-10-04T12:44:16Z</time>
      </trkpt>
      <trkpt lat="44.65612" lon="4.41575">
        <ele>263</ele>
        <time>2022-10-04T12:45:48Z</time>
      </trkpt>
      <trkpt lat="44.65722" lon="4.4158">
        <ele>262</ele>
        <time>2022-10-04T12:48:15Z</time>
      </trkpt>
      <trkpt lat="44.65812" lon="4.41185">
        <ele>328</ele>
        <time>2022-10-04T12:54:48Z</time>
      </trkpt>
      <trkpt lat="44.65713" lon="4.41164">
        <ele>340</ele>
        <time>2022-10-04T12:57:02Z</time>
      </trkpt>
      <trkpt lat="44.65674" lon="4.41107">
        <ele>340</ele>
        <time>2022-10-04T12:58:17Z</time>
      </trkpt>
      <trkpt lat="44.65765" lon="4.40952">
        <ele>337</ele>
        <time>2022-10-04T13:01:28Z</time>
      </trkpt>
      <trkpt lat="44.6577" lon="4.40842">
        <ele>347</ele>
        <time>2022-10-04T13:03:13Z</time>
      </trkpt>
      <trkpt lat="44.6591" lon="4.40939">
        <ele>347</ele>
        <time>2022-10-04T13:06:41Z</time>
      </trkpt>
      <trkpt lat="44.66013" lon="4.40724">
        <ele>369</ele>
        <time>2022-10-04T13:10:47Z</time>
      </trkpt>
      <trkpt lat="44.66006" lon="4.40624">
        <ele>381</ele>
        <time>2022-10-04T13:12:22Z</time>
      </trkpt>
      <trkpt lat="44.6614" lon="4.40573">
        <ele>385</ele>
        <time>2022-10-04T13:15:28Z</time>
      </trkpt>
      <trkpt lat="44.66252" lon="4.40477">
        <ele>392</ele>
        <time>2022-10-04T13:18:23Z</time>
      </trkpt>
      <trkpt lat="44.66276" lon="4.404">
        <ele>400</ele>
        <time>2022-10-04T13:19:42Z</time>
      </trkpt>
      <trkpt lat="44.66394" lon="4.4032">
        <ele>407</ele>
        <time>2022-10-04T13:22:37Z</time>
      </trkpt>
      <trkpt lat="44.66493" lon="4.40308">
        <ele>410</ele>
        <time>2022-10-04T13:24:50Z</time>
      </trkpt>
      <trkpt lat="44.66483" lon="4.40269">
        <ele>410</ele>
        <time>2022-10-04T13:25:29Z</time>
      </trkpt>
      <trkpt lat="44.66557" lon="4.40284">
        <ele>409</ele>
        <time>2022-10-04T13:27:09Z</time>
      </trkpt>
      <trkpt lat="44.66638" lon="4.40258">
        <ele>402</ele>
        <time>2022-10-04T13:29:00Z</time>
      </trkpt>
      <trkpt lat="44.66741" lon="4.40246">
        <ele>398</ele>
        <time>2022-10-04T13:31:18Z</time>
      </trkpt>
      <trkpt lat="44.6682" lon="4.39966">
        <ele>401</ele>
        <time>2022-10-04T13:36:04Z</time>
      </trkpt>
      <trkpt lat="44.66879" lon="4.39914">
        <ele>421</ele>
        <time>2022-10-04T13:37:36Z</time>
      </trkpt>
      <trkpt lat="44.66935" lon="4.40077">
        <ele>419</ele>
        <time>2022-10-04T13:40:28Z</time>
      </trkpt>
      <trkpt lat="44.67041" lon="4.4012">
        <ele>435</ele>
        <time>2022-10-04T13:42:56Z</time>
      </trkpt>
      <trkpt lat="44.67119" lon="4.40175">
        <ele>428</ele>
        <time>2022-10-04T13:44:52Z</time>
      </trkpt>
      <trkpt lat="44.67154" lon="4.40153">
        <ele>433</ele>
        <time>2022-10-04T13:45:43Z</time>
      </trkpt>
      <trkpt lat="44.67192" lon="4.40142">
        <ele>431</ele>
        <time>2022-10-04T13:46:35Z</time>
      </trkpt>
      <trkpt lat="44.67223" lon="4.40052">
        <ele>435</ele>
        <time>2022-10-04T13:48:10Z</time>
      </trkpt>
      <trkpt lat="44.67265" lon="4.40073">
        <ele>425</ele>
        <time>2022-10-04T13:49:09Z</time>
      </trkpt>
      <trkpt lat="44.67317" lon="4.40073">
        <ele>420</ele>
        <time>2022-10-04T13:50:19Z</time>
      </trkpt>
      <trkpt lat="44.67382" lon="4.40088">
        <ele>418</ele>
        <time>2022-10-04T13:51:47Z</time>
      </trkpt>
      <trkpt lat="44.67447" lon="4.40059">
        <ele>412</ele>
        <time>2022-10-04T13:53:18Z</time>
      </trkpt>
      <trkpt lat="44.67507" lon="4.40078">
        <ele>413</ele>
        <time>2022-10-04T13:54:40Z</time>
      </trkpt>
      <trkpt lat="44.67581" lon="4.40004">
        <ele>401</ele>
        <time>2022-10-04T13:56:41Z</time>
      </trkpt>
      <trkpt lat="44.67718" lon="4.40187">
        <ele>390</ele>
        <time>2022-10-04T14:00:53Z</time>
      </trkpt>
      <trkpt lat="44.67712" lon="4.40248">
        <ele>379</ele>
        <time>2022-10-04T14:01:51Z</time>
      </trkpt>
      <trkpt lat="44.67741" lon="4.40288">
        <ele>380</ele>
        <time>2022-10-04T14:02:46Z</time>
      </trkpt>
      <trkpt lat="44.67727" lon="4.40348">
        <ele>369</ele>
        <time>2022-10-04T14:03:46Z</time>
      </trkpt>
      <trkpt lat="44.6776" lon="4.40403">
        <ele>369</ele>
        <time>2022-10-04T14:04:54Z</time>
      </trkpt>
      <trkpt lat="44.67754" lon="4.40467">
        <ele>358</ele>
        <time>2022-10-04T14:05:55Z</time>
      </trkpt>
      <trkpt lat="44.67785" lon="4.40519">
        <ele>362</ele>
        <time>2022-10-04T14:06:59Z</time>
      </trkpt>
      <trkpt lat="44.67732" lon="4.40573">
        <ele>350</ele>
        <time>2022-10-04T14:08:27Z</time>
      </trkpt>
      <trkpt lat="44.67726" lon="4.40653">
        <ele>350</ele>
        <time>2022-10-04T14:09:43Z</time>
      </trkpt>
      <trkpt lat="44.67698" lon="4.40871">
        <ele>328</ele>
        <time>2022-10-04T14:13:13Z</time>
      </trkpt>
      <trkpt lat="44.67837" lon="4.40893">
        <ele>329</ele>
        <time>2022-10-04T14:16:20Z</time>
      </trkpt>
      <trkpt lat="44.67891" lon="4.40855">
        <ele>337</ele>
        <time>2022-10-04T14:17:41Z</time>
      </trkpt>
      <trkpt lat="44.6799" lon="4.40884">
        <ele>326</ele>
        <time>2022-10-04T14:19:56Z</time>
      </trkpt>
      <trkpt lat="44.68171" lon="4.40906">
        <ele>327</ele>
        <time>2022-10-04T14:23:58Z</time>
      </trkpt>
      <trkpt lat="44.68294" lon="4.40761">
        <ele>334</ele>
        <time>2022-10-04T14:27:32Z</time>
      </trkpt>
      <trkpt lat="44.68328" lon="4.40793">
        <ele>326</ele>
        <time>2022-10-04T14:28:27Z</time>
      </trkpt>
      <trkpt lat="44.68347" lon="4.40823">
        <ele>327</ele>
        <time>2022-10-04T14:29:05Z</time>
      </trkpt>
      <trkpt lat="44.68329" lon="4.40892">
        <ele>328</ele>
        <time>2022-10-04T14:30:15Z</time>
      </trkpt>
      <trkpt lat="44.68383" lon="4.4078">
        <ele>332</ele>
        <time>2022-10-04T14:32:23Z</time>
      </trkpt>
      <trkpt lat="44.68449" lon="4.40725">
        <ele>339</ele>
        <time>2022-10-04T14:34:05Z</time>
      </trkpt>
      <trkpt lat="44.68553" lon="4.40622">
        <ele>342</ele>
        <time>2022-10-04T14:36:55Z</time>
      </trkpt>
      <trkpt lat="44.6861" lon="4.40601">
        <ele>343</ele>
        <time>2022-10-04T14:38:14Z</time>
      </trkpt>
      <trkpt lat="44.68712" lon="4.40645">
        <ele>349</ele>
        <time>2022-10-04T14:40:36Z</time>
      </trkpt>
      <trkpt lat="44.68782" lon="4.40743">
        <ele>358</ele>
        <time>2022-10-04T14:42:48Z</time>
      </trkpt>
      <trkpt lat="44.68845" lon="4.40961">
        <ele>367</ele>
        <time>2022-10-04T14:46:31Z</time>
      </trkpt>
      <trkpt lat="44.69133" lon="4.41176">
        <ele>364</ele>
        <time>2022-10-04T14:53:46Z</time>
      </trkpt>
      <trkpt lat="44.69141" lon="4.41242">
        <ele>375</ele>
        <time>2022-10-04T14:54:50Z</time>
      </trkpt>
      <trkpt lat="44.69072" lon="4.41366">
        <ele>395</ele>
        <time>2022-10-04T14:57:19Z</time>
      </trkpt>
      <trkpt lat="44.69056" lon="4.41442">
        <ele>408</ele>
        <time>2022-10-04T14:58:34Z</time>
      </trkpt>
      <trkpt lat="44.6897" lon="4.41595">
        <ele>430</ele>
        <time>2022-10-04T15:01:39Z</time>
      </trkpt>
      <trkpt lat="44.68958" lon="4.41889">
        <ele>472</ele>
        <time>2022-10-04T15:06:19Z</time>
      </trkpt>
      <trkpt lat="44.6891" lon="4.41928">
        <ele>472</ele>
        <time>2022-10-04T15:07:33Z</time>
      </trkpt>
      <trkpt lat="44.68883" lon="4.42057">
        <ele>459</ele>
        <time>2022-10-04T15:09:40Z</time>
      </trkpt>
      <trkpt lat="44.68858" lon="4.42079">
        <ele>451</ele>
        <time>2022-10-04T15:10:20Z</time>
      </trkpt>
      <trkpt lat="44.68828" lon="4.42128">
        <ele>447</ele>
        <time>2022-10-04T15:11:21Z</time>
      </trkpt>
      <trkpt lat="44.68766" lon="4.42148">
        <ele>438</ele>
        <time>2022-10-04T15:12:46Z</time>
      </trkpt>
      <trkpt lat="44.68745" lon="4.42234">
        <ele>443</ele>
        <time>2022-10-04T15:14:12Z</time>
      </trkpt>
      <trkpt lat="44.68794" lon="4.42346">
        <ele>430</ele>
        <time>2022-10-04T15:16:17Z</time>
      </trkpt>
      <trkpt lat="44.68813" lon="4.42472">
        <ele>418</ele>
        <time>2022-10-04T15:18:19Z</time>
      </trkpt>
      <trkpt lat="44.68762" lon="4.42513">
        <ele>421</ele>
        <time>2022-10-04T15:19:38Z</time>
      </trkpt>
      <trkpt lat="44.68754" lon="4.42616">
        <ele>410</ele>
        <time>2022-10-04T15:21:16Z</time>
      </trkpt>
      <trkpt lat="44.68701" lon="4.42695">
        <ele>397</ele>
        <time>2022-10-04T15:22:59Z</time>
      </trkpt>
      <trkpt lat="44.6876" lon="4.42678">
        <ele>399</ele>
        <time>2022-10-04T15:24:19Z</time>
      </trkpt>
      <trkpt lat="44.68736" lon="4.42747">
        <ele>387</ele>
        <time>2022-10-04T15:25:32Z</time>
      </trkpt>
      <trkpt lat="44.68681" lon="4.4274">
        <ele>389</ele>
        <time>2022-10-04T15:26:46Z</time>
      </trkpt>
      <trkpt lat="44.68725" lon="4.42815">
        <ele>381</ele>
        <time>2022-10-04T15:28:18Z</time>
      </trkpt>
      <trkpt lat="44.68771" lon="4.42828">
        <ele>375</ele>
        <time>2022-10-04T15:29:21Z</time>
      </trkpt>
      <trkpt lat="44.68766" lon="4.42858">
        <ele>373</ele>
        <time>2022-10-04T15:29:50Z</time>
      </trkpt>
      <trkpt lat="44.68745" lon="4.42861">
        <ele>373</ele>
        <time>2022-10-04T15:30:18Z</time>
      </trkpt>
      <trkpt lat="44.68701" lon="4.43088">
        <ele>366</ele>
        <time>2022-10-04T15:34:01Z</time>
      </trkpt>
      <trkpt lat="44.68815" lon="4.43281">
        <ele>368</ele>
        <time>2022-10-04T15:37:59Z</time>
      </trkpt>
      <trkpt lat="44.68969" lon="4.43551">
        <ele>374</ele>
        <time>2022-10-04T15:43:28Z</time>
      </trkpt>
      <trkpt lat="44.68998" lon="4.43665">
        <ele>372</ele>
        <time>2022-10-04T15:45:23Z</time>
      </trkpt>
      <trkpt lat="44.68983" lon="4.43869">
        <ele>391</ele>
        <time>2022-10-04T15:48:37Z</time>
      </trkpt>
      <trkpt lat="44.69003" lon="4.43875">
        <ele>394</ele>
        <time>2022-10-04T15:49:04Z</time>
      </trkpt>
      <trkpt lat="44.68953" lon="4.43907">
        <ele>393</ele>
        <time>2022-10-04T15:50:18Z</time>
      </trkpt>
      <trkpt lat="44.68936" lon="4.43955">
        <ele>391</ele>
        <time>2022-10-04T15:51:09Z</time>
      </trkpt>
      <trkpt lat="44.69001" lon="4.4403">
        <ele>396</ele>
        <time>2022-10-04T15:53:01Z</time>
      </trkpt>
      <trkpt lat="44.69044" lon="4.4401">
        <ele>405</ele>
        <time>2022-10-04T15:54:01Z</time>
      </trkpt>
      <trkpt lat="44.69071" lon="4.4399">
        <ele>410</ele>
        <time>2022-10-04T15:54:42Z</time>
      </trkpt>
      <trkpt lat="44.69068" lon="4.4396">
        <ele>411</ele>
        <time>2022-10-04T15:55:11Z</time>
      </trkpt>
    </trkseg>
  </trk>
</gpx>